Time;durP1;ratioP1;P1;durP2;ratioP2;P2;SDS_P1;SDS_P2;PMS_P1;PMS_P2;Temp;Humidity;BMP_temperature;BMP_pressure;BME280_temperature;BME280_humidity;BME280_pressure;Samples;Min_cycle;Max_cycle;Signal;HPM_P1;HPM_P2
2022/03/01 00:02:02;;;;;;;11.47;7.10;;;;;;;-1.01;80.54;99607.56;5019936;28;20182;-95
2022/03/01 00:04:28;;;;;;;11.27;6.70;;;;;;;1.32;81.42;100015.50;5019190;28;20178;-93
2022/03/01 00:06:53;;;;;;;12.67;7.00;;;;;;;0.41;80.80;99854.41;5017847;28;20285;-94
2022/03/01 00:09:19;;;;;;;11.20;6.40;;;;;;;0.36;80.50;99858.94;5016794;28;20219;-93
2022/03/01 00:11:45;;;;;;;12.33;7.43;;;;;;;0.24;80.40;99847.03;5019369;28;20253;-93
2022/03/01 00:14:10;;;;;;;11.73;6.80;;;;;;;-1.19;80.79;99562.06;5016581;28;20221;-93
2022/03/01 00:16:36;;;;;;;13.17;7.60;;;;;;;0.28;81.22;99849.91;5009100;28;20195;-89
2022/03/01 00:19:02;;;;;;;13.23;7.40;;;;;;;1.14;79.99;99962.38;5008755;28;20174;-89
2022/03/01 00:21:28;;;;;;;15.23;7.37;;;;;;;2.37;80.24;100195.44;5014159;28;20178;-90
2022/03/01 00:23:55;;;;;;;16.07;8.20;;;;;;;0.93;80.66;99908.16;5028286;28;20413;-90
2022/03/01 00:26:21;;;;;;;24.00;10.77;;;;;;;2.61;80.25;100215.09;5014632;28;20440;-89
2022/03/01 00:28:46;;;;;;;24.93;10.83;;;;;;;1.95;80.45;100092.66;5017893;28;20468;-87
2022/03/01 00:31:12;;;;;;;24.50;10.13;;;;;;;-0.51;79.77;99664.34;5015141;28;20187;-89
2022/03/01 00:33:38;;;;;;;38.43;13.17;;;;;;;-1.84;80.85;99489.88;5022741;28;20767;-89
2022/03/01 00:36:04;;;;;;;52.20;16.20;;;;;;;2.39;81.34;100193.94;5015814;28;20226;-89
2022/03/01 00:38:30;;;;;;;56.43;17.33;;;;;;;0.29;81.48;99869.13;5024245;28;20417;-88
2022/03/01 00:40:56;;;;;;;58.67;16.47;;;;;;;2.09;81.79;100151.28;5016921;28;20457;-88
2022/03/01 00:43:23;;;;;;;44.90;13.17;;;;;;;2.26;81.88;100217.00;5028190;28;20185;-88
2022/03/01 00:45:50;;;;;;;83.40;21.73;;;;;;;0.00;82.26;99825.78;5020435;28;20190;-87
2022/03/01 00:48:15;;;;;;;79.73;19.93;;;;;;;-0.76;82.85;99667.09;5036594;28;20453;-89
2022/03/01 00:50:41;;;;;;;89.63;19.70;;;;;;;2.19;83.79;100191.34;5019238;28;20432;-89
2022/03/01 00:53:06;;;;;;;91.93;22.07;;;;;;;0.95;83.59;100000.47;5004105;28;20195;-89
2022/03/01 00:55:32;;;;;;;81.13;19.10;;;;;;;2.22;83.47;100216.59;5003863;28;20174;-89
2022/03/01 00:57:58;;;;;;;92.70;22.43;;;;;;;1.25;83.83;100060.56;5008504;28;20194;-89
2022/03/01 01:00:23;;;;;;;127.30;25.30;;;;;;;-0.01;83.68;99816.56;5015581;28;20579;-90
2022/03/01 01:02:49;;;;;;;128.10;27.43;;;;;;;-0.33;84.10;99743.97;5013523;28;20198;-87
2022/03/01 01:05:15;;;;;;;71.63;18.40;;;;;;;0.39;83.91;99861.72;5019245;28;20604;-89
2022/03/01 01:07:40;;;;;;;105.63;23.90;;;;;;;-0.51;83.84;99709.97;5023711;28;20188;-89
2022/03/01 01:10:07;;;;;;;105.90;22.23;;;;;;;-0.37;83.77;99713.72;5024033;28;20202;-89
2022/03/01 01:12:34;;;;;;;54.43;14.50;;;;;;;2.43;84.31;100208.50;5040265;28;20186;-90
2022/03/01 01:14:59;;;;;;;37.23;11.07;;;;;;;0.93;85.08;99940.53;5022769;28;20475;-89
2022/03/01 01:17:25;;;;;;;14.73;7.40;;;;;;;-0.12;85.46;99779.88;5046670;28;20844;-89
2022/03/01 01:19:50;;;;;;;19.53;9.50;;;;;;;0.05;86.35;99846.97;5015197;28;20225;-89
2022/03/01 01:25:00;;;;;;;15.90;8.23;;;;;;;1.79;92.02;100192.78;5034533;28;20248;-88
2022/03/01 01:27:26;;;;;;;13.90;7.77;;;;;;;0.12;92.33;99908.13;5019190;28;20945;-90
2022/03/01 01:29:51;;;;;;;16.43;8.70;;;;;;;1.01;92.96;100043.41;5022496;28;20681;-90
2022/03/01 01:32:17;;;;;;;16.47;8.83;;;;;;;0.51;93.09;99974.03;5019577;28;20276;-89
2022/03/01 01:34:42;;;;;;;17.97;8.40;;;;;;;-1.90;92.73;99556.31;5002031;28;20261;-90
2022/03/01 01:37:08;;;;;;;34.30;13.63;;;;;;;-1.77;93.26;99588.09;5039567;28;20184;-88
2022/03/01 01:39:33;;;;;;;19.83;10.10;;;;;;;-0.14;93.99;99868.44;5051683;28;20198;-86
2022/03/01 01:41:58;;;;;;;15.47;8.47;;;;;;;0.14;94.68;99941.53;5042619;28;20245;-89
2022/03/01 01:44:24;;;;;;;15.23;8.43;;;;;;;-0.74;95.53;99764.16;5035194;28;20212;-86
2022/03/01 01:46:49;;;;;;;22.40;11.73;;;;;;;-0.48;96.63;99833.69;5034118;28;20181;-89
2022/03/01 01:49:15;;;;;;;17.93;9.00;;;;;;;-1.05;96.87;99723.19;5023362;28;20218;-89
2022/03/01 01:51:40;;;;;;;15.13;8.50;;;;;;;-0.78;96.93;99780.41;5023114;28;20185;-90
2022/03/01 01:54:06;;;;;;;16.53;8.73;;;;;;;1.61;97.51;100213.56;5030956;28;20182;-89
2022/03/01 01:56:33;;;;;;;16.80;8.13;;;;;;;1.46;99.27;100217.16;5027754;28;20179;-89
2022/03/01 01:58:58;;;;;;;16.10;8.03;;;;;;;-0.20;99.44;99938.38;5038205;28;20199;-89
2022/03/01 02:01:24;;;;;;;17.57;8.83;;;;;;;0.97;100.00;100114.53;5038190;28;20476;-89
2022/03/01 02:03:49;;;;;;;17.67;9.60;;;;;;;-1.28;100.00;99721.03;5007888;28;20228;-87
2022/03/01 02:06:15;;;;;;;17.83;8.93;;;;;;;-1.54;100.00;99664.69;5014413;28;20198;-90
2022/03/01 02:08:40;;;;;;;19.50;9.63;;;;;;;-0.66;100.00;99851.13;4999914;28;20193;-89
2022/03/01 02:11:08;;;;;;;18.80;10.23;;;;;;;-1.69;100.00;99664.13;5010298;28;20190;-90
2022/03/01 02:13:33;;;;;;;18.67;9.67;;;;;;;-1.17;100.00;99727.00;5020004;28;20166;-89
2022/03/01 02:15:59;;;;;;;17.30;9.97;;;;;;;1.30;100.00;100184.06;5020982;28;20496;-88
2022/03/01 02:18:25;;;;;;;20.73;9.63;;;;;;;-1.09;100.00;99777.38;5025179;28;20173;-90
2022/03/01 02:20:50;;;;;;;19.50;10.23;;;;;;;-0.49;100.00;99896.56;5025036;28;20194;-89
2022/03/01 02:23:16;;;;;;;21.30;10.67;;;;;;;-3.23;100.00;99414.63;5000739;28;20619;-90
2022/03/01 02:25:41;;;;;;;20.83;10.97;;;;;;;-2.52;100.00;99537.94;5017318;28;20167;-90
2022/03/01 02:28:06;;;;;;;32.30;15.50;;;;;;;-1.01;100.00;99777.38;4998749;28;20171;-90
2022/03/01 02:30:32;;;;;;;33.67;16.20;;;;;;;-0.17;100.00;99922.88;4997680;28;20163;-90
2022/03/01 02:32:58;;;;;;;56.13;24.40;;;;;;;1.22;100.00;100152.56;5016431;28;20169;-89
2022/03/01 02:35:24;;;;;;;98.67;41.40;;;;;;;-0.36;100.00;99889.56;4999337;28;20623;-89
2022/03/01 02:37:50;;;;;;;94.27;40.43;;;;;;;1.11;100.00;100145.72;4998866;28;20424;-89
2022/03/01 02:40:16;;;;;;;80.50;36.43;;;;;;;1.13;100.00;100134.25;5020110;28;20151;-89
2022/03/01 02:42:44;;;;;;;84.33;34.47;;;;;;;0.82;100.00;100092.31;5021618;28;20177;-89
2022/03/01 02:45:13;;;;;;;59.00;26.37;;;;;;;-0.67;100.00;99851.88;5019115;28;20241;-90
2022/03/01 02:47:39;;;;;;;44.67;20.67;;;;;;;-1.07;100.00;99805.75;5036197;28;20400;-89
2022/03/01 02:50:06;;;;;;;42.17;18.47;;;;;;;-3.03;100.00;99481.81;5017102;28;20449;-89
2022/03/01 02:52:31;;;;;;;37.43;16.53;;;;;;;-2.86;100.00;99503.25;5001211;28;20433;-89
2022/03/01 02:54:57;;;;;;;29.07;15.10;;;;;;;-3.28;100.00;99447.97;5021670;28;20417;-90
2022/03/01 02:57:24;;;;;;;33.53;14.53;;;;;;;0.22;100.00;100090.81;5036410;28;20166;-89
2022/03/01 02:59:53;;;;;;;26.55;14.13;;;;;;;-2.56;100.00;99579.63;5020954;28;20217;-91
2022/03/01 03:02:19;;;;;;;26.55;12.65;;;;;;;-2.88;100.00;99568.22;5035936;28;20185;-91
2022/03/01 03:04:45;;;;;;;30.63;13.63;;;;;;;-3.82;100.00;99415.38;5038499;28;20186;-90
2022/03/01 03:07:11;;;;;;;28.97;13.33;;;;;;;-2.27;100.00;99702.28;5037431;28;20170;-88
2022/03/01 03:09:37;;;;;;;27.55;13.60;;;;;;;-3.52;100.00;99516.44;5028659;28;20293;-90
2022/03/01 03:12:03;;;;;;;27.50;13.70;;;;;;;0.15;100.00;100108.41;5034984;28;20224;-88
2022/03/01 03:14:29;;;;;;;28.10;13.75;;;;;;;-2.93;100.00;99601.53;5056591;28;20618;-90
2022/03/01 03:16:54;;;;;;;30.57;13.67;;;;;;;0.19;100.00;100134.50;5040010;28;20261;-91
2022/03/01 03:19:20;;;;;;;33.20;14.33;;;;;;;-1.41;100.00;99854.66;5037941;28;20582;-90
2022/03/01 03:21:47;;;;;;;41.00;16.97;;;;;;;-3.90;100.00;99403.84;5037159;28;20248;-89
2022/03/01 03:24:13;;;;;;;38.20;16.02;;;;;;;-2.87;100.00;99595.59;5040444;28;20174;-89
2022/03/01 03:26:38;;;;;;;36.00;16.65;;;;;;;-1.01;100.00;99876.72;5033923;28;20162;-89
2022/03/01 03:29:08;;;;;;;35.03;16.63;;;;;;;-3.13;100.00;99538.56;5015890;28;20198;-89
2022/03/01 03:31:37;;;;;;;35.70;17.55;;;;;;;-1.95;100.00;99745.09;5016139;28;20166;-90
2022/03/01 03:34:04;;;;;;;33.03;15.80;;;;;;;-1.81;100.00;99775.47;5018931;28;20171;-89
2022/03/01 03:36:30;;;;;;;35.63;17.67;;;;;;;-3.64;100.00;99419.63;5022971;28;20174;-89
2022/03/01 03:38:56;;;;;;;38.13;17.75;;;;;;;-3.08;100.00;99552.25;5033375;28;20166;-89
2022/03/01 03:41:21;;;;;;;41.50;19.67;;;;;;;-2.12;100.00;99703.78;5018909;28;20176;-90
2022/03/01 03:43:47;;;;;;;44.53;19.67;;;;;;;-2.58;100.00;99599.28;5038618;28;20154;-90
2022/03/01 03:46:12;;;;;;;39.10;18.43;;;;;;;-1.78;100.00;99722.78;5038772;28;20166;-89
2022/03/01 03:48:38;;;;;;;41.97;19.27;;;;;;;-3.21;100.00;99430.50;5041417;28;20254;-89
2022/03/01 03:51:03;;;;;;;36.33;17.37;;;;;;;-1.91;100.00;99658.72;5040890;28;20245;-90
2022/03/01 03:53:29;;;;;;;44.60;20.53;;;;;;;-1.27;100.00;99755.06;5020717;28;20201;-90
2022/03/01 03:55:54;;;;;;;54.57;23.83;;;;;;;-2.97;100.00;99442.75;5020629;28;20158;-90
2022/03/01 03:58:20;;;;;;;50.47;22.73;;;;;;;-1.59;100.00;99655.94;5040221;28;20705;-90
2022/03/01 04:00:46;;;;;;;34.07;16.17;;;;;;;0.96;100.00;100089.47;5021338;28;20226;-90
2022/03/01 04:03:11;;;;;;;33.77;15.50;;;;;;;-0.25;100.00;99834.22;5020544;28;20197;-89
2022/03/01 04:05:37;;;;;;;28.40;13.53;;;;;;;-1.18;100.00;99697.91;5027926;28;20428;-90
2022/03/01 04:08:03;;;;;;;27.50;13.30;;;;;;;1.06;100.00;100084.59;5001181;28;20166;-90
2022/03/01 04:10:28;;;;;;;32.00;14.87;;;;;;;-2.87;100.00;99406.50;5001712;28;20182;-90
2022/03/01 04:12:54;;;;;;;25.10;12.57;;;;;;;-1.53;100.00;99631.69;5002750;28;20642;-90
2022/03/01 04:15:19;;;;;;;34.43;15.77;;;;;;;1.13;100.00;100107.72;5011335;28;20167;-89
2022/03/01 04:17:45;;;;;;;26.20;11.03;;;;;;;-2.94;100.00;99431.41;5011347;28;20182;-89
2022/03/01 04:20:14;;;;;;;26.40;12.37;;;;;;;-3.00;100.00;99426.75;5003766;28;20228;-90
2022/03/01 04:22:40;;;;;;;26.47;12.53;;;;;;;-0.15;100.00;99887.44;5000961;28;20167;-90
2022/03/01 04:25:07;;;;;;;34.37;14.67;;;;;;;-2.42;100.00;99502.53;5001418;28;20421;-90
2022/03/01 04:27:33;;;;;;;31.33;14.57;;;;;;;-0.27;100.00;99900.34;5000951;28;21049;-90
2022/03/01 04:29:58;;;;;;;30.27;13.80;;;;;;;-1.79;100.00;99615.22;5021462;28;20489;-90
2022/03/01 04:32:24;;;;;;;43.27;19.30;;;;;;;-1.47;100.00;99677.81;5003335;28;20198;-91
2022/03/01 04:34:49;;;;;;;37.73;17.60;;;;;;;-0.70;100.00;99829.22;5018254;28;20631;-90
2022/03/01 04:37:15;;;;;;;29.33;14.70;;;;;;;-0.83;100.00;99808.94;4999120;28;20312;-90
2022/03/01 04:39:40;;;;;;;27.33;13.30;;;;;;;-1.92;100.00;99606.47;5017135;28;20163;-90
2022/03/01 04:42:06;;;;;;;27.13;12.90;;;;;;;-1.92;100.00;99599.91;4999890;28;20213;-92
2022/03/01 04:44:35;;;;;;;25.23;12.73;;;;;;;-0.34;100.00;99883.09;5001227;28;20178;-90
2022/03/01 04:47:02;;;;;;;29.70;13.17;;;;;;;-2.92;100.00;99412.63;5004041;28;20272;-91
2022/03/01 04:49:28;;;;;;;27.93;13.40;;;;;;;-1.34;100.00;99719.56;5002789;28;20472;-90
2022/03/01 04:51:54;;;;;;;31.23;15.73;;;;;;;-0.73;100.00;99851.28;5015332;28;20807;-90
2022/03/01 04:54:19;;;;;;;34.03;15.93;;;;;;;-2.24;100.00;99552.97;5038234;28;20256;-89
2022/03/01 04:56:45;;;;;;;37.97;18.33;;;;;;;0.95;100.00;100107.66;5033365;28;20174;-90
2022/03/01 04:59:10;;;;;;;81.00;35.90;;;;;;;-1.70;100.00;99657.38;5000639;28;20598;-90
2022/03/01 05:01:36;;;;;;;41.60;20.27;;;;;;;-0.99;100.00;99871.94;5000380;28;20222;-90
2022/03/01 05:04:03;;;;;;;38.57;16.53;;;;;;;-0.97;100.00;99871.34;5017709;28;20178;-91
2022/03/01 05:06:30;;;;;;;29.50;12.65;;;;;;;-4.10;100.00;99386.16;4999602;28;20209;-89
2022/03/01 05:08:55;;;;;;;32.05;14.57;;;;;;;-1.39;100.00;99829.97;5000236;28;20245;-90
2022/03/01 05:11:21;;;;;;;30.53;14.13;;;;;;;-3.27;100.00;99541.25;5000537;28;20293;-89
2022/03/01 05:13:47;;;;;;;78.67;29.97;;;;;;;-3.24;100.00;99538.25;5001533;28;20526;-89
2022/03/01 05:16:13;;;;;;;32.37;14.03;;;;;;;-3.75;100.00;99448.25;5006365;28;20268;-90
2022/03/01 05:18:38;;;;;;;36.23;16.07;;;;;;;-3.59;100.00;99472.91;5039395;28;20166;-90
2022/03/01 05:21:04;;;;;;;24.93;12.60;;;;;;;-2.00;100.00;99754.56;5024359;28;20170;-90
2022/03/01 05:23:29;;;;;;;28.60;12.97;;;;;;;-2.10;100.00;99661.78;5048423;28;20192;-89
2022/03/01 05:25:55;;;;;;;26.23;12.03;;;;;;;-2.29;100.00;99612.03;5049658;28;20189;-91
2022/03/01 05:28:20;;;;;;;47.47;22.77;;;;;;;-1.37;100.00;99761.47;5020076;28;20806;-89
2022/03/01 05:30:46;;;;;;;49.07;21.97;;;;;;;-1.90;100.00;99642.25;5020623;28;20637;-90
2022/03/01 05:33:12;;;;;;;74.53;31.07;;;;;;;-0.01;100.00;99956.78;5031551;28;20172;-89
2022/03/01 05:35:37;;;;;;;72.77;30.83;;;;;;;0.81;100.00;100093.03;5008712;28;20273;-89
2022/03/01 05:38:03;;;;;;;72.70;34.57;;;;;;;0.79;100.00;100069.59;5044479;28;20182;-90
2022/03/01 05:40:31;;;;;;;85.53;40.83;;;;;;;0.27;100.00;100001.66;5025724;28;20174;-90
2022/03/01 05:42:56;;;;;;;81.23;37.40;;;;;;;1.21;100.00;100150.78;5031747;28;20177;-91
2022/03/01 05:45:25;;;;;;;64.77;30.77;;;;;;;1.33;100.00;100161.91;5039581;28;20432;-90
2022/03/01 05:47:50;;;;;;;113.18;49.33;;;;;;;1.36;100.00;100158.81;5035914;28;20621;-90
2022/03/01 05:50:17;;;;;;;33.63;16.27;;;;;;;1.25;100.00;100165.31;5021023;28;20190;-91
2022/03/01 05:52:42;;;;;;;41.07;20.07;;;;;;;-1.07;100.00;99814.03;5038676;28;20556;-90
2022/03/01 05:55:10;;;;;;;85.03;41.87;;;;;;;1.19;100.00;100162.25;5037144;28;20413;-90
2022/03/01 05:57:35;;;;;;;78.97;36.15;;;;;;;-2.23;100.00;99552.25;5037017;28;20232;-90
2022/03/01 06:00:02;;;;;;;180.73;80.07;;;;;;;1.46;100.00;100163.88;5019972;28;20229;-90
2022/03/01 06:02:28;;;;;;;93.17;38.63;;;;;;;0.11;100.00;99961.16;5020049;28;20166;-90
2022/03/01 06:04:53;;;;;;;81.93;33.40;;;;;;;-1.24;100.00;99702.31;5018618;28;20417;-90
2022/03/01 06:07:19;;;;;;;70.70;31.00;;;;;;;-0.88;100.00;99769.47;5036677;28;20174;-89
2022/03/01 06:09:45;;;;;;;100.40;39.47;;;;;;;-0.77;100.00;99769.72;5038345;28;20193;-90
2022/03/01 06:12:11;;;;;;;178.77;62.67;;;;;;;-2.14;100.00;99520.88;5042118;28;20441;-90
2022/03/01 06:14:37;;;;;;;67.60;29.03;;;;;;;-0.87;100.00;99751.31;5040979;28;20802;-90
2022/03/01 06:17:03;;;;;;;54.13;24.20;;;;;;;-0.75;100.00;99740.06;5020937;28;20193;-90
2022/03/01 06:19:29;;;;;;;51.20;24.43;;;;;;;-0.34;99.96;99835.84;5040857;28;20724;-91
2022/03/01 06:21:54;;;;;;;44.40;20.80;;;;;;;1.95;99.21;100229.13;5035112;28;21002;-90
2022/03/01 06:24:20;;;;;;;42.00;19.67;;;;;;;1.44;99.02;100106.38;5036915;28;20181;-88
2022/03/01 06:26:46;;;;;;;42.93;20.13;;;;;;;-1.68;97.32;99575.66;5020086;28;20186;-90
2022/03/01 06:29:11;;;;;;;55.93;25.37;;;;;;;-0.60;98.01;99783.69;5035609;28;20201;-90
2022/03/01 06:31:37;;;;;;;37.87;18.13;;;;;;;0.60;98.38;99967.41;5039957;28;20224;-89
2022/03/01 06:34:03;;;;;;;30.10;14.07;;;;;;;-0.13;97.55;99803.88;5024400;28;20555;-91
2022/03/01 06:36:28;;;;;;;39.07;17.33;;;;;;;0.69;96.40;99937.47;5015906;28;20237;-90
2022/03/01 06:38:54;;;;;;;47.63;21.57;;;;;;;0.03;95.81;99840.97;5025820;28;20452;-92
2022/03/01 06:41:19;;;;;;;64.80;27.93;;;;;;;-1.36;95.98;99584.47;5038899;28;20190;-88
2022/03/01 06:43:45;;;;;;;63.00;30.00;;;;;;;-1.28;95.62;99618.34;5040757;28;20186;-91
2022/03/01 06:46:11;;;;;;;100.93;46.03;;;;;;;-1.11;96.14;99640.63;5036476;28;20680;-89
2022/03/01 06:48:37;;;;;;;73.70;37.07;;;;;;;0.69;97.25;99987.28;5037294;28;20233;-88
2022/03/01 06:51:03;;;;;;;33.90;15.60;;;;;;;0.52;97.60;100013.16;5040491;28;20282;-87
2022/03/01 06:53:29;;;;;;;40.37;19.10;;;;;;;0.57;97.65;99994.53;5017487;28;20666;-86
2022/03/01 06:55:55;;;;;;;53.50;25.73;;;;;;;1.21;98.04;100065.16;5030035;28;20443;-88
2022/03/01 06:58:21;;;;;;;71.97;32.70;;;;;;;0.50;97.36;99958.19;5027796;28;20436;-88
2022/03/01 07:00:47;;;;;;;54.77;26.83;;;;;;;1.72;96.61;100098.13;5034147;28;20497;-89
2022/03/01 07:03:12;;;;;;;55.00;25.90;;;;;;;2.06;95.63;100173.53;5057616;28;20191;-91
2022/03/01 07:05:38;;;;;;;158.47;67.50;;;;;;;1.44;94.38;100060.59;5018452;28;20498;-88
2022/03/01 07:08:04;;;;;;;98.30;42.23;;;;;;;-0.29;95.20;99755.06;5032982;28;20178;-88
2022/03/01 07:10:29;;;;;;;105.33;48.23;;;;;;;-0.35;95.19;99715.59;5035111;28;20214;-88
2022/03/01 07:12:54;;;;;;;62.43;30.50;;;;;;;0.38;94.05;99855.00;5026686;28;20193;-89
2022/03/01 07:15:20;;;;;;;46.73;24.40;;;;;;;0.66;95.10;99937.19;5034442;28;20220;-89
2022/03/01 07:17:46;;;;;;;44.00;24.57;;;;;;;1.76;94.96;100071.81;5040914;28;20225;-89
2022/03/01 07:20:13;;;;;;;56.53;27.80;;;;;;;2.56;93.34;100198.81;5033688;28;20202;-88
2022/03/01 07:22:38;;;;;;;39.13;22.23;;;;;;;0.97;93.03;99927.59;5014531;28;20429;-89
2022/03/01 07:25:05;;;;;;;43.07;21.90;;;;;;;1.84;91.51;100050.91;5037677;28;20444;-88
2022/03/01 07:27:30;;;;;;;80.37;32.33;;;;;;;2.92;89.91;100202.00;5029227;28;20193;-88
2022/03/01 07:29:56;;;;;;;48.90;22.07;;;;;;;1.54;89.66;99980.88;5041992;28;20487;-86
2022/03/01 07:32:22;;;;;;;29.80;14.67;;;;;;;2.67;90.13;100190.63;5047387;28;20181;-88
2022/03/01 07:34:47;;;;;;;36.13;15.77;;;;;;;1.62;89.88;100024.84;5037571;28;20920;-90
2022/03/01 07:37:13;;;;;;;51.30;21.23;;;;;;;1.26;89.08;99887.78;5047481;28;20608;-89
2022/03/01 07:39:38;;;;;;;46.70;23.30;;;;;;;1.73;88.70;99937.66;5054277;28;20189;-88
2022/03/01 07:42:05;;;;;;;38.57;19.47;;;;;;;1.90;87.04;99969.06;5051562;28;20181;-88
2022/03/01 07:44:30;;;;;;;43.83;23.53;;;;;;;3.08;87.66;100183.31;5035650;28;20271;-88
2022/03/01 07:46:57;;;;;;;35.50;16.90;;;;;;;1.05;89.31;99914.19;5044784;28;20430;-87
2022/03/01 07:49:22;;;;;;;88.83;37.50;;;;;;;2.51;90.38;100162.56;5052137;28;20213;-90
2022/03/01 07:51:48;;;;;;;38.80;18.97;;;;;;;0.76;90.11;99877.47;5039206;28;20416;-88
2022/03/01 07:54:13;;;;;;;28.33;13.53;;;;;;;2.40;89.78;100150.75;5036441;28;20204;-88
2022/03/01 07:56:40;;;;;;;56.43;29.57;;;;;;;2.58;87.66;100126.50;5035125;28;20594;-87
2022/03/01 07:59:06;;;;;;;26.60;11.80;;;;;;;1.63;84.62;99882.72;5053345;28;20173;-88
2022/03/01 08:01:32;;;;;;;20.07;11.33;;;;;;;3.52;83.20;100205.44;5050704;28;20476;-88
2022/03/01 08:03:57;;;;;;;11.83;5.80;;;;;;;3.46;81.85;100218.31;5028129;28;20506;-87
2022/03/01 08:06:23;;;;;;;22.60;11.93;;;;;;;2.13;83.83;100023.47;5023613;28;20183;-89
2022/03/01 08:08:48;;;;;;;24.07;12.60;;;;;;;3.61;83.62;100231.25;5042689;28;20232;-88
2022/03/01 08:11:14;;;;;;;23.63;12.47;;;;;;;3.94;82.22;100216.50;5068161;28;20162;-89
2022/03/01 08:13:40;;;;;;;23.27;11.97;;;;;;;2.11;80.85;99851.06;5041660;28;20199;-89
2022/03/01 08:16:05;;;;;;;19.20;10.77;;;;;;;2.77;79.05;99955.72;5058270;28;20200;-88
2022/03/01 08:18:31;;;;;;;18.53;10.40;;;;;;;4.24;78.97;100187.19;5054688;28;20182;-90
2022/03/01 08:20:57;;;;;;;21.17;11.57;;;;;;;4.61;78.83;100219.47;5036802;28;20204;-90
2022/03/01 08:23:24;;;;;;;22.17;12.23;;;;;;;3.66;77.86;100038.84;5024407;28;20197;-91
2022/03/01 08:25:49;;;;;;;25.43;14.20;;;;;;;1.69;76.33;99803.41;5033952;28;21148;-91
2022/03/01 08:28:15;;;;;;;26.47;14.67;;;;;;;1.71;78.46;99901.72;5036562;28;20514;-92
2022/03/01 08:30:41;;;;;;;21.03;11.43;;;;;;;0.75;78.03;99668.94;5035417;28;20280;-91
2022/03/01 08:33:07;;;;;;;12.30;7.13;;;;;;;3.11;75.85;99984.34;5042375;28;20237;-90
2022/03/01 08:35:34;;;;;;;15.37;8.70;;;;;;;1.35;73.99;99684.06;5030263;28;20449;-90
2022/03/01 08:38:02;;;;;;;14.70;8.47;;;;;;;2.41;73.21;99852.72;5040929;28;20412;-89
2022/03/01 08:40:29;;;;;;;15.07;8.93;;;;;;;4.63;73.38;100187.88;5037924;28;20433;-90
2022/03/01 08:42:55;;;;;;;18.83;9.73;;;;;;;4.47;72.94;100144.78;5032301;28;20812;-88
2022/03/01 08:45:23;;;;;;;19.60;10.57;;;;;;;1.05;72.61;99492.06;5048061;28;20519;-89
2022/03/01 08:47:50;;;;;;;20.23;11.47;;;;;;;4.84;71.80;100100.88;5037244;28;20422;-89
2022/03/01 08:50:16;;;;;;;24.67;12.83;;;;;;;3.97;71.56;99951.25;5049243;28;20466;-88
2022/03/01 08:52:41;;;;;;;22.90;12.23;;;;;;;3.36;72.55;99822.94;5038005;28;20427;-89
2022/03/01 08:55:08;;;;;;;24.93;12.00;;;;;;;5.29;73.19;100152.06;5046562;28;20196;-90
2022/03/01 08:57:35;;;;;;;26.93;13.83;;;;;;;4.01;72.68;99915.66;5047129;28;20248;-90
2022/03/01 09:00:01;;;;;;;28.87;15.20;;;;;;;6.20;72.29;100244.41;5056900;28;20549;-89
2022/03/01 09:02:26;;;;;;;22.93;13.40;;;;;;;4.33;71.23;99855.50;5039899;28;20475;-90
2022/03/01 09:04:52;;;;;;;22.50;12.20;;;;;;;2.78;69.35;99536.63;5041603;28;20212;-90
2022/03/01 09:07:17;;;;;;;25.43;14.10;;;;;;;3.66;68.26;99628.31;5042179;28;20177;-89
2022/03/01 09:09:43;;;;;;;33.63;19.23;;;;;;;4.98;68.36;99864.47;5040576;28;20219;-88
2022/03/01 09:12:09;;;;;;;24.53;13.90;;;;;;;4.28;67.88;99723.09;5057901;28;20553;-90
2022/03/01 09:14:34;;;;;;;24.80;14.30;;;;;;;3.91;67.38;99661.91;5048533;28;20284;-89
2022/03/01 09:17:00;;;;;;;23.07;13.70;;;;;;;6.79;66.26;100096.13;5056161;28;20173;-89
2022/03/01 09:19:25;;;;;;;26.90;14.67;;;;;;;7.73;64.97;100233.59;5046205;28;20201;-89
2022/03/01 09:21:51;;;;;;;36.63;19.33;;;;;;;5.68;64.86;99893.00;5040383;28;20182;-89
2022/03/01 09:24:16;;;;;;;33.43;18.50;;;;;;;4.92;65.30;99709.38;5029165;28;20265;-88
2022/03/01 09:26:42;;;;;;;27.93;15.90;;;;;;;5.35;65.18;99846.28;5040835;28;20192;-90
2022/03/01 09:29:18;;;;;;;39.00;22.40;;;;;;;6.69;65.43;100048.47;5053328;28;20192;-91
2022/03/01 09:31:43;;;;;;;43.57;24.00;;;;;;;4.49;64.84;99624.38;5045978;28;20193;-89
2022/03/01 09:34:09;;;;;;;32.07;17.73;;;;;;;5.64;64.30;99788.03;5047100;28;20191;-93
2022/03/01 09:36:35;;;;;;;21.70;12.17;;;;;;;5.08;61.81;99664.53;5038394;28;20236;-90
2022/03/01 09:39:04;;;;;;;19.97;10.90;;;;;;;6.98;60.40;99993.44;5044221;28;20177;-90
2022/03/01 09:41:32;;;;;;;29.13;16.63;;;;;;;7.61;61.50;100105.13;5042054;28;20181;-87
2022/03/01 09:43:58;;;;;;;28.13;16.97;;;;;;;6.38;60.68;99906.28;5037106;28;20737;-89
2022/03/01 09:46:24;;;;;;;23.50;16.50;;;;;;;5.33;59.43;99728.19;5049726;28;20680;-88
2022/03/01 09:48:59;;;;;;;20.13;12.80;;;;;;;7.71;59.98;100132.69;5022460;28;20818;-90
2022/03/01 09:51:26;;;;;;;23.87;13.30;;;;;;;5.16;59.44;99771.34;5035587;28;20180;-90
2022/03/01 09:53:52;;;;;;;20.73;11.47;;;;;;;4.42;59.23;99620.56;5053873;28;20212;-91
2022/03/01 09:56:19;;;;;;;14.63;8.07;;;;;;;3.31;58.23;99478.09;5049488;28;20173;-89
2022/03/01 09:58:46;;;;;;;12.87;7.50;;;;;;;7.48;58.50;100245.28;5038856;28;20177;-90
2022/03/01 10:01:12;;;;;;;15.90;9.30;;;;;;;5.51;58.21;99869.19;5054364;28;20514;-89
2022/03/01 10:03:38;;;;;;;16.43;9.10;;;;;;;8.26;56.48;100224.59;5022615;28;20437;-87
2022/03/01 10:06:12;;;;;;;17.17;8.83;;;;;;;7.11;56.87;100021.16;5035882;28;20375;-90
2022/03/01 10:08:38;;;;;;;15.47;9.90;;;;;;;6.85;56.16;99992.50;5059629;28;20204;-90
2022/03/01 10:11:04;;;;;;;15.43;9.20;;;;;;;4.88;56.56;99683.97;5041305;28;20197;-89
2022/03/01 10:13:33;;;;;;;14.77;8.77;;;;;;;4.93;57.57;99677.66;5042668;28;20189;-90
2022/03/01 10:16:12;;;;;;;18.57;10.17;;;;;;;6.99;56.79;99959.06;5041016;28;20174;-89
2022/03/01 10:18:48;;;;;;;16.97;9.30;;;;;;;5.28;55.30;99631.63;5037202;28;20181;-89
2022/03/01 10:21:14;;;;;;;14.87;8.73;;;;;;;7.14;54.56;99884.56;5057096;28;20184;-90
2022/03/01 10:23:48;;;;;;;15.33;9.20;;;;;;;7.50;55.56;99964.09;5038981;28;20200;-88
2022/03/01 10:26:19;;;;;;;22.93;10.87;;;;;;;9.20;53.34;100186.06;5053935;28;20214;-90
2022/03/01 10:28:47;;;;;;;15.40;9.30;;;;;;;5.77;51.65;99536.94;5052349;28;20193;-89
2022/03/01 10:31:18;;;;;;;15.17;8.83;;;;;;;5.74;51.50;99612.09;5037914;28;20260;-89
2022/03/01 10:34:00;;;;;;;21.57;12.10;;;;;;;6.68;54.42;99809.34;5056720;28;20260;-87
2022/03/01 10:36:31;;;;;;;15.77;8.33;;;;;;;6.30;55.05;99776.69;5027437;28;20216;-89
2022/03/01 10:39:01;;;;;;;14.97;9.23;;;;;;;4.40;55.90;99576.97;5041455;28;20176;-89
2022/03/01 10:41:29;;;;;;;20.13;10.67;;;;;;;7.20;56.16;99995.72;5062782;28;20172;-87
2022/03/01 10:43:57;;;;;;;18.77;10.93;;;;;;;7.51;55.05;99941.56;5062641;28;20170;-89
2022/03/01 10:46:24;;;;;;;24.60;14.73;;;;;;;7.03;54.38;99770.59;5038021;28;20174;-88
2022/03/01 10:49:05;;;;;;;13.20;8.03;;;;;;;9.52;50.37;100151.78;5054237;28;20185;-87
2022/03/01 10:51:32;;;;;;;15.50;9.47;;;;;;;8.17;51.86;99921.34;5061333;28;20295;-89
2022/03/01 10:53:59;;;;;;;14.87;8.70;;;;;;;6.38;50.63;99648.19;5057689;28;20165;-89
2022/03/01 10:56:34;;;;;;;14.67;7.93;;;;;;;5.46;51.32;99556.69;5057852;28;20172;-88
2022/03/01 10:59:00;;;;;;;15.10;9.47;;;;;;;6.43;53.38;99772.56;5041077;28;20681;-89
2022/03/01 11:01:27;;;;;;;13.60;8.67;;;;;;;8.71;51.04;100145.91;5055955;28;20216;-87
2022/03/01 11:03:53;;;;;;;11.07;7.83;;;;;;;8.01;50.63;99943.88;5040429;28;20583;-88
2022/03/01 11:06:19;;;;;;;10.67;7.50;;;;;;;8.83;48.68;100064.25;5040124;28;20185;-87
2022/03/01 11:08:45;;;;;;;12.57;7.70;;;;;;;8.47;49.66;100016.56;5041883;28;20297;-89
2022/03/01 11:11:11;;;;;;;13.20;8.30;;;;;;;9.91;48.37;100109.47;5054402;28;20185;-89
2022/03/01 11:13:39;;;;;;;13.13;8.73;;;;;;;10.46;46.89;100121.09;5061512;28;20173;-89
2022/03/01 11:16:33;;;;;;;15.03;9.17;;;;;;;9.81;45.72;100121.47;5059246;28;20187;-87